createdAt,value
2017-02-17T00:00:38.613Z,6.03
2017-02-17T00:01:50.036Z,6.09
2017-02-17T00:03:01.465Z,6.1
2017-02-17T00:04:12.920Z,6.1
2017-02-17T00:05:24.540Z,6.06
2017-02-17T00:06:36.041Z,6.17
2017-02-17T00:07:47.882Z,6.14
2017-02-17T00:08:59.328Z,6.14
2017-02-17T00:10:10.779Z,6.13
2017-02-17T00:11:22.213Z,6.13
2017-02-17T00:12:33.652Z,6.15
2017-02-17T00:13:45.122Z,6.13
2017-02-17T00:14:56.570Z,6.21
2017-02-17T00:16:08.007Z,6.17
2017-02-17T00:17:19.505Z,6.09
2017-02-17T00:18:30.936Z,6.15
2017-02-17T00:19:42.379Z,6.15
2017-02-17T00:20:53.813Z,6.1
2017-02-17T00:22:05.260Z,6.07
2017-02-17T00:23:17.087Z,6.05
2017-02-17T00:24:28.516Z,6.05
2017-02-17T00:25:39.944Z,6.07
2017-02-17T00:26:51.393Z,5.95
2017-02-17T00:28:02.879Z,5.92
2017-02-17T00:29:14.317Z,6.02
2017-02-17T00:30:25.755Z,5.92
2017-02-17T00:31:37.206Z,5.96
2017-02-17T00:32:48.844Z,5.98
2017-02-17T00:34:00.322Z,5.98
2017-02-17T00:35:11.737Z,5.98
2017-02-17T00:36:23.177Z,5.84
2017-02-17T00:37:34.625Z,5.92
2017-02-17T00:38:46.047Z,5.88
2017-02-17T00:39:57.589Z,5.91
2017-02-17T00:41:09.039Z,5.98
2017-02-17T00:42:20.479Z,5.89
2017-02-17T00:43:31.916Z,5.85
2017-02-17T00:44:43.358Z,5.92
2017-02-17T00:45:54.784Z,5.95
2017-02-17T00:47:06.216Z,5.96
2017-02-17T00:48:17.662Z,5.96
2017-02-17T00:49:29.140Z,5.99
2017-02-17T00:50:40.584Z,5.99
2017-02-17T00:51:52.031Z,5.96
2017-02-17T00:53:03.490Z,5.96
2017-02-17T00:54:14.916Z,6.05
2017-02-17T00:55:26.749Z,6.02
2017-02-17T00:56:38.196Z,5.95
2017-02-17T00:57:49.684Z,6.06
2017-02-17T00:59:01.112Z,6.02
2017-02-17T01:00:12.599Z,5.92
2017-02-17T01:01:24.039Z,6.05
2017-02-17T01:02:35.487Z,6.03
2017-02-17T01:03:46.946Z,6.06
2017-02-17T01:04:58.577Z,6.1
2017-02-17T01:06:10.017Z,6.1
2017-02-17T01:07:21.655Z,6.06
2017-02-17T01:08:33.112Z,6.06
2017-02-17T01:09:44.561Z,6.02
2017-02-17T01:10:56.089Z,6.09
2017-02-17T01:12:07.520Z,6.06
2017-02-17T01:13:18.961Z,6.07
2017-02-17T01:14:30.610Z,6.05
2017-02-17T01:15:42.049Z,6.05
2017-02-17T01:16:53.561Z,6.09
2017-02-17T01:18:04.994Z,6.05
2017-02-17T01:19:16.448Z,6.1
2017-02-17T01:20:27.880Z,6.06
2017-02-17T01:21:39.524Z,6.03
2017-02-17T01:22:51.174Z,6.06
2017-02-17T01:24:03.017Z,6.09
2017-02-17T01:25:14.468Z,6.02
2017-02-17T01:26:25.897Z,6.09
2017-02-17T01:27:37.337Z,6.03
2017-02-17T01:28:48.818Z,6.13
2017-02-17T01:30:00.243Z,6.09
2017-02-17T01:31:11.689Z,6.03
2017-02-17T01:32:23.132Z,5.96
2017-02-17T01:33:34.590Z,6.02
2017-02-17T01:34:46.027Z,6.09
2017-02-17T01:35:57.663Z,6.02
2017-02-17T01:37:09.109Z,6.03
2017-02-17T01:38:20.605Z,5.96
2017-02-17T01:39:32.102Z,5.89
2017-02-17T01:40:43.538Z,5.95
2017-02-17T01:41:54.990Z,5.92
2017-02-17T01:43:06.418Z,5.91
2017-02-17T01:44:18.043Z,5.88
2017-02-17T01:45:29.485Z,5.96
2017-02-17T01:46:40.955Z,5.92
2017-02-17T01:47:52.390Z,5.89
2017-02-17T01:49:04.276Z,5.88
2017-02-17T01:50:15.727Z,5.81
2017-02-17T01:51:27.173Z,5.85
2017-02-17T01:52:38.619Z,5.88
2017-02-17T01:53:50.248Z,5.81
2017-02-17T01:55:01.739Z,5.73
2017-02-17T01:56:13.171Z,5.75
2017-02-17T01:57:24.624Z,5.73
2017-02-17T01:58:36.072Z,5.77
2017-02-17T01:59:47.561Z,5.78
2017-02-17T02:00:59.006Z,5.73
2017-02-17T02:02:10.462Z,5.73
2017-02-17T02:03:21.896Z,5.72
2017-02-17T02:04:33.362Z,5.51
2017-02-17T02:05:44.794Z,5.57
2017-02-17T02:06:56.283Z,5.52
2017-02-17T02:08:07.736Z,5.54
2017-02-17T02:09:19.389Z,5.49
2017-02-17T02:10:30.816Z,5.51
2017-02-17T02:11:42.299Z,5.57
2017-02-17T02:12:53.743Z,5.59
2017-02-17T02:14:05.184Z,5.51
2017-02-17T02:15:16.633Z,5.59
2017-02-17T02:16:28.072Z,5.52
2017-02-17T02:17:39.507Z,5.59
2017-02-17T02:18:51.154Z,5.57
2017-02-17T02:20:02.605Z,5.52
2017-02-17T02:21:14.085Z,5.51
2017-02-17T02:22:25.531Z,5.51
2017-02-17T02:23:37.160Z,5.49
2017-02-17T02:24:48.596Z,5.46
2017-02-17T02:26:00.022Z,5.49
2017-02-17T02:27:11.452Z,5.51
2017-02-17T02:28:23.102Z,5.41
2017-02-17T02:29:34.526Z,5.52
2017-02-17T02:30:46.178Z,5.51
2017-02-17T02:31:58.080Z,5.52
2017-02-17T02:33:09.531Z,5.52
2017-02-17T02:34:20.983Z,5.54
2017-02-17T02:35:32.433Z,5.55
2017-02-17T02:36:43.886Z,5.54
2017-02-17T02:37:55.313Z,5.52
2017-02-17T02:39:06.748Z,5.6
2017-02-17T02:40:18.194Z,5.54
2017-02-17T02:41:29.631Z,5.51
2017-02-17T02:42:41.112Z,5.7
2017-02-17T02:43:52.556Z,5.67
2017-02-17T02:45:04.003Z,5.7
2017-02-17T02:46:15.434Z,5.7
2017-02-17T02:47:26.856Z,5.7
2017-02-17T02:48:38.289Z,5.73
2017-02-17T02:49:49.741Z,5.78
2017-02-17T02:51:01.180Z,5.81
2017-02-17T02:52:12.618Z,5.77
2017-02-17T02:53:24.046Z,5.8
2017-02-17T02:54:35.535Z,5.8
2017-02-17T02:55:46.981Z,5.84
2017-02-17T02:56:58.424Z,5.87
2017-02-17T02:58:09.880Z,5.88
2017-02-17T02:59:21.314Z,5.92
2017-02-17T03:00:32.748Z,5.92
2017-02-17T03:01:44.194Z,5.96
2017-02-17T03:02:55.626Z,5.92
2017-02-17T03:04:07.136Z,5.95
2017-02-17T03:05:18.782Z,5.92
2017-02-17T03:06:30.232Z,5.99
2017-02-17T03:07:41.889Z,5.99
2017-02-17T03:08:53.731Z,5.98
2017-02-17T03:10:05.461Z,6
2017-02-17T03:11:17.121Z,6.03
2017-02-17T03:12:28.953Z,6
2017-02-17T03:13:40.388Z,6
2017-02-17T03:14:52.285Z,6
2017-02-17T03:16:03.732Z,5.99
2017-02-17T03:17:15.388Z,6.06
2017-02-17T03:18:26.825Z,6.03
2017-02-17T03:19:38.256Z,6.14
2017-02-17T03:20:49.724Z,6.13
2017-02-17T03:22:01.187Z,6.02
2017-02-17T03:23:12.635Z,6.05
2017-02-17T03:24:24.293Z,6.03
2017-02-17T03:25:35.775Z,6.09
2017-02-17T03:26:47.226Z,6.14
2017-02-17T03:27:58.684Z,6.07
2017-02-17T03:29:10.122Z,6.17
2017-02-17T03:30:21.572Z,6.14
2017-02-17T03:31:33.022Z,6.09
2017-02-17T03:32:44.450Z,6.13
2017-02-17T03:33:55.895Z,6.18
2017-02-17T03:35:07.341Z,6.14
2017-02-17T03:36:18.764Z,6.15
2017-02-17T03:37:30.440Z,6.24
2017-02-17T03:38:42.081Z,6.2
2017-02-17T03:39:53.511Z,6.14
2017-02-17T03:41:04.946Z,6.21
2017-02-17T03:42:16.375Z,6.24
2017-02-17T03:43:27.809Z,6.15
2017-02-17T03:44:39.256Z,6.21
2017-02-17T03:45:50.687Z,6.24
2017-02-17T03:47:02.177Z,6.24
2017-02-17T03:48:13.609Z,6.21
2017-02-17T03:49:25.041Z,6.14
2017-02-17T03:50:36.504Z,6.15
2017-02-17T03:51:47.942Z,6.14
2017-02-17T03:52:59.374Z,6.14
2017-02-17T03:54:10.813Z,6.17
2017-02-17T03:55:22.243Z,6.15
2017-02-17T03:56:33.692Z,6.18
2017-02-17T03:57:45.189Z,6.24
2017-02-17T03:58:56.820Z,6.25
2017-02-17T04:00:08.247Z,6.26
2017-02-17T04:01:19.682Z,6.28
2017-02-17T04:02:31.139Z,6.2
2017-02-17T04:03:42.787Z,6.18
2017-02-17T04:04:54.220Z,6.18
2017-02-17T04:06:05.673Z,6.25
2017-02-17T04:07:17.111Z,6.2
2017-02-17T04:08:28.613Z,6.25
2017-02-17T04:09:40.280Z,6.24
2017-02-17T04:10:51.721Z,6.2
2017-02-17T04:12:03.182Z,6.26
2017-02-17T04:13:14.635Z,6.18
2017-02-17T04:14:26.081Z,6.25
2017-02-17T04:15:37.509Z,6.28
2017-02-17T04:16:48.932Z,6.28
2017-02-17T04:18:00.356Z,6.17
2017-02-17T04:19:11.781Z,6.25
2017-02-17T04:20:23.426Z,6.25
2017-02-17T04:21:34.866Z,6.24
2017-02-17T04:22:46.300Z,6.33
2017-02-17T04:23:57.755Z,6.31
2017-02-17T04:25:09.200Z,6.28
2017-02-17T04:26:20.632Z,6.33
2017-02-17T04:27:32.077Z,6.21
2017-02-17T04:28:43.521Z,6.29
2017-02-17T04:29:55.013Z,6.33
2017-02-17T04:31:06.645Z,6.26
2017-02-17T04:32:18.099Z,6.25
2017-02-17T04:33:29.529Z,6.2
2017-02-17T04:34:40.979Z,6.28
2017-02-17T04:35:52.436Z,6.17
2017-02-17T04:37:04.081Z,6.24
2017-02-17T04:38:15.551Z,6.2
2017-02-17T04:39:26.997Z,6.24
2017-02-17T04:40:38.482Z,6.24
2017-02-17T04:41:49.938Z,6.29
2017-02-17T04:43:01.384Z,6.31
2017-02-17T04:44:13.005Z,6.26
2017-02-17T04:45:24.438Z,6.36
2017-02-17T04:46:36.085Z,6.31
2017-02-17T04:47:47.524Z,6.31
2017-02-17T04:48:58.958Z,6.28
2017-02-17T04:50:10.424Z,6.31
2017-02-17T04:51:22.100Z,6.36
2017-02-17T04:52:33.547Z,6.37
2017-02-17T04:53:45.011Z,6.29
2017-02-17T04:54:56.443Z,6.36
2017-02-17T04:56:07.871Z,6.36
2017-02-17T04:57:19.349Z,6.29
2017-02-17T04:58:30.999Z,6.36
2017-02-17T04:59:42.628Z,6.34
2017-02-17T05:00:54.055Z,6.33
2017-02-17T05:02:05.534Z,6.29
2017-02-17T05:03:16.964Z,6.37
2017-02-17T05:04:28.806Z,6.4
2017-02-17T05:05:40.231Z,6.37
2017-02-17T05:06:51.663Z,6.39
2017-02-17T05:08:03.351Z,6.42
2017-02-17T05:09:14.788Z,6.39
2017-02-17T05:10:26.430Z,6.33
2017-02-17T05:11:37.868Z,6.37
2017-02-17T05:12:49.322Z,6.34
2017-02-17T05:14:00.810Z,6.4
2017-02-17T05:15:12.243Z,6.37
2017-02-17T05:16:23.697Z,6.39
2017-02-17T05:17:35.137Z,6.37
2017-02-17T05:18:46.579Z,6.43
2017-02-17T05:19:58.023Z,6.4
2017-02-17T05:21:09.675Z,6.44
2017-02-17T05:22:21.123Z,6.43
2017-02-17T05:23:32.812Z,6.39
2017-02-17T05:24:44.246Z,6.4
2017-02-17T05:25:55.884Z,6.39
2017-02-17T05:27:07.312Z,6.37
2017-02-17T05:28:18.753Z,6.43
2017-02-17T05:29:30.202Z,6.43
2017-02-17T05:30:41.631Z,6.43
2017-02-17T05:31:53.081Z,6.43
2017-02-17T05:33:04.524Z,6.42
2017-02-17T05:34:16.237Z,6.44
2017-02-17T05:35:27.668Z,6.4
2017-02-17T05:36:39.094Z,6.42
2017-02-17T05:37:50.527Z,6.46
2017-02-17T05:39:01.987Z,6.42
2017-02-17T05:40:13.627Z,6.39
2017-02-17T05:41:25.060Z,6.42
2017-02-17T05:42:36.495Z,6.39
2017-02-17T05:43:47.946Z,6.42
2017-02-17T05:44:59.449Z,6.39
2017-02-17T05:46:10.890Z,6.46
2017-02-17T05:47:22.347Z,6.43
2017-02-17T05:48:33.989Z,6.44
2017-02-17T05:49:45.409Z,6.39
2017-02-17T05:50:56.836Z,6.4
2017-02-17T05:52:08.248Z,6.44
2017-02-17T05:53:19.689Z,6.39
2017-02-17T05:54:31.337Z,6.31
2017-02-17T05:55:42.776Z,6.37
2017-02-17T05:56:54.222Z,6.36
2017-02-17T05:58:05.866Z,6.37
2017-02-17T05:59:17.321Z,6.4
2017-02-17T06:00:28.760Z,6.36
2017-02-17T06:01:40.252Z,6.42
2017-02-17T06:02:51.905Z,6.42
2017-02-17T06:04:03.359Z,6.44
2017-02-17T06:05:14.791Z,6.39
2017-02-17T06:06:26.219Z,6.42
2017-02-17T06:07:37.676Z,6.44
2017-02-17T06:08:49.100Z,6.37
2017-02-17T06:10:00.743Z,6.42
2017-02-17T06:11:12.191Z,6.42
2017-02-17T06:12:23.673Z,6.43
2017-02-17T06:13:35.097Z,6.37
2017-02-17T06:14:46.537Z,6.37
2017-02-17T06:15:57.966Z,6.31
2017-02-17T06:17:09.411Z,6.42
2017-02-17T06:18:20.837Z,6.37
2017-02-17T06:19:32.312Z,6.42
2017-02-17T06:20:43.756Z,6.44
2017-02-17T06:21:55.239Z,6.39
2017-02-17T06:23:06.917Z,6.39
2017-02-17T06:24:18.553Z,6.39
2017-02-17T06:25:30.006Z,6.42
2017-02-17T06:26:41.445Z,6.39
2017-02-17T06:27:53.136Z,6.43
2017-02-17T06:29:04.579Z,6.46
2017-02-17T06:30:16.017Z,6.4
2017-02-17T06:31:27.933Z,6.43
2017-02-17T06:32:39.374Z,6.37
2017-02-17T06:33:50.827Z,6.43
2017-02-17T06:35:02.262Z,6.39
2017-02-17T06:36:13.723Z,6.43
2017-02-17T06:37:25.170Z,6.44
2017-02-17T06:38:36.603Z,6.51
2017-02-17T06:39:48.042Z,6.42
2017-02-17T06:40:59.498Z,6.52
2017-02-17T06:42:11.138Z,6.46
2017-02-17T06:43:22.554Z,6.42
2017-02-17T06:44:34.268Z,6.46
2017-02-17T06:45:45.697Z,6.43
2017-02-17T06:46:57.135Z,6.4
2017-02-17T06:48:08.577Z,6.42
2017-02-17T06:49:20.020Z,6.49
2017-02-17T06:50:31.663Z,6.49
2017-02-17T06:51:43.107Z,6.49
2017-02-17T06:52:54.741Z,6.51
2017-02-17T06:54:06.169Z,6.49
2017-02-17T06:55:17.650Z,6.52
2017-02-17T06:56:29.079Z,6.54
2017-02-17T06:57:40.508Z,6.55
2017-02-17T06:58:51.929Z,6.46
2017-02-17T07:00:03.353Z,6.55
2017-02-17T07:01:14.784Z,6.61
2017-02-17T07:02:26.227Z,6.46
2017-02-17T07:03:37.674Z,6.54
2017-02-17T07:04:49.172Z,6.55
2017-02-17T07:06:00.665Z,6.49
2017-02-17T07:07:12.094Z,6.58
2017-02-17T07:08:23.531Z,6.54
2017-02-17T07:09:34.960Z,6.61
2017-02-17T07:10:46.414Z,6.61
2017-02-17T07:11:57.907Z,6.55
2017-02-17T07:13:09.353Z,6.57
2017-02-17T07:14:20.791Z,6.61
2017-02-17T07:15:32.222Z,6.54
2017-02-17T07:16:43.690Z,6.54
2017-02-17T07:17:55.198Z,6.57
2017-02-17T07:19:06.835Z,6.54
2017-02-17T07:20:18.486Z,6.51
2017-02-17T07:21:29.925Z,6.61
2017-02-17T07:22:41.578Z,6.68
2017-02-17T07:23:53.210Z,6.67
2017-02-17T07:25:04.872Z,6.64
2017-02-17T07:26:16.317Z,6.58
2017-02-17T07:27:27.806Z,6.67
2017-02-17T07:28:39.239Z,6.64
2017-02-17T07:29:50.685Z,6.58
2017-02-17T07:31:02.156Z,6.6
2017-02-17T07:32:13.593Z,6.65
2017-02-17T07:33:25.086Z,6.67
2017-02-17T07:34:36.721Z,6.64
2017-02-17T07:35:48.376Z,6.58
2017-02-17T07:36:59.825Z,6.6
2017-02-17T07:38:11.318Z,6.67
2017-02-17T07:39:22.953Z,6.65
2017-02-17T07:40:34.393Z,6.62
2017-02-17T07:41:45.830Z,6.65
2017-02-17T07:42:57.265Z,6.64
2017-02-17T07:44:08.724Z,6.6
2017-02-17T07:45:20.153Z,6.65
2017-02-17T07:46:31.602Z,6.7
2017-02-17T07:47:43.056Z,6.67
2017-02-17T07:48:54.745Z,6.7
2017-02-17T07:50:06.223Z,6.72
2017-02-17T07:51:17.663Z,6.61
2017-02-17T07:52:29.101Z,6.67
2017-02-17T07:53:40.538Z,6.75
2017-02-17T07:54:51.985Z,6.76
2017-02-17T07:56:03.617Z,6.75
2017-02-17T07:57:15.049Z,6.85
2017-02-17T07:58:26.701Z,6.8
2017-02-17T07:59:38.161Z,6.8
2017-02-17T08:00:49.600Z,6.76
2017-02-17T08:02:01.021Z,6.76
2017-02-17T08:03:12.468Z,6.85
2017-02-17T08:04:23.911Z,6.82
2017-02-17T08:05:35.361Z,6.86
2017-02-17T08:06:46.805Z,6.68
2017-02-17T08:07:58.247Z,6.8
2017-02-17T08:09:09.707Z,6.78
2017-02-17T08:10:21.208Z,6.9
2017-02-17T08:11:32.660Z,6.73
2017-02-17T08:12:44.294Z,6.79
2017-02-17T08:13:55.750Z,6.73
2017-02-17T08:15:07.191Z,6.75
2017-02-17T08:16:18.623Z,6.82
2017-02-17T08:17:30.053Z,6.82
2017-02-17T08:18:41.711Z,6.8
2017-02-17T08:19:53.143Z,6.8
2017-02-17T08:21:04.630Z,6.79
2017-02-17T08:22:16.064Z,6.7
2017-02-17T08:23:27.492Z,6.83
2017-02-17T08:24:38.912Z,6.85
2017-02-17T08:25:50.544Z,6.88
2017-02-17T08:27:01.989Z,6.93
2017-02-17T08:28:13.433Z,6.94
2017-02-17T08:29:24.875Z,6.94
2017-02-17T08:30:36.525Z,6.82
2017-02-17T08:31:48.010Z,6.88
2017-02-17T08:32:59.447Z,6.86
2017-02-17T08:34:10.891Z,6.95
2017-02-17T08:35:22.521Z,6.94
2017-02-17T08:36:33.981Z,6.91
2017-02-17T08:37:45.428Z,6.97
2017-02-17T08:38:56.881Z,6.93
2017-02-17T08:40:08.330Z,6.95
2017-02-17T08:41:19.773Z,6.98
2017-02-17T08:42:31.215Z,7.03
2017-02-17T08:43:42.671Z,6.97
2017-02-17T08:44:54.310Z,7.01
2017-02-17T08:46:05.775Z,7.09
2017-02-17T08:47:17.252Z,7.05
2017-02-17T08:48:28.712Z,7.13
2017-02-17T08:49:40.197Z,7.15
2017-02-17T08:50:51.650Z,7.11
2017-02-17T08:52:03.314Z,7.26
2017-02-17T08:53:14.796Z,7.21
2017-02-17T08:54:26.251Z,7.26
2017-02-17T08:55:38.100Z,7.27
2017-02-17T08:56:49.740Z,7.23
2017-02-17T08:58:01.194Z,7.29
2017-02-17T08:59:12.849Z,7.29
2017-02-17T09:00:24.283Z,7.26
2017-02-17T09:01:35.726Z,7.22
2017-02-17T09:02:47.151Z,7.21
2017-02-17T09:03:58.657Z,7.16
2017-02-17T09:05:10.158Z,7.22
2017-02-17T09:06:21.813Z,7.18
2017-02-17T09:07:33.297Z,7.19
2017-02-17T09:08:44.746Z,7.22
2017-02-17T09:09:56.172Z,7.16
2017-02-17T09:11:07.623Z,7.18
2017-02-17T09:12:19.267Z,7.12
2017-02-17T09:13:30.723Z,7.22
2017-02-17T09:14:42.409Z,7.11
2017-02-17T09:15:53.850Z,7.13
2017-02-17T09:17:05.283Z,7.16
2017-02-17T09:18:16.719Z,7.19
2017-02-17T09:19:28.165Z,7.19
2017-02-17T09:20:39.622Z,7.16
2017-02-17T09:21:51.070Z,7.19
2017-02-17T09:23:02.502Z,7.15
2017-02-17T09:24:13.942Z,7.18
2017-02-17T09:25:25.438Z,7.27
2017-02-17T09:26:36.909Z,7.21
2017-02-17T09:27:48.354Z,7.26
2017-02-17T09:28:59.787Z,7.27
2017-02-17T09:30:11.222Z,7.29
2017-02-17T09:31:22.703Z,7.21
2017-02-17T09:32:34.130Z,7.29
2017-02-17T09:33:45.572Z,7.3
2017-02-17T09:34:57.009Z,7.31
2017-02-17T09:36:08.437Z,7.36
2017-02-17T09:37:19.913Z,7.3
2017-02-17T09:38:31.348Z,7.36
2017-02-17T09:39:42.790Z,7.29
2017-02-17T09:40:54.425Z,7.4
2017-02-17T09:42:06.077Z,7.4
2017-02-17T09:43:17.515Z,7.37
2017-02-17T09:44:28.962Z,7.31
2017-02-17T09:45:40.423Z,7.29
2017-02-17T09:46:51.858Z,7.33
2017-02-17T09:48:03.488Z,7.34
2017-02-17T09:49:15.124Z,7.37
2017-02-17T09:50:26.979Z,7.33
2017-02-17T09:51:38.405Z,7.44
2017-02-17T09:52:50.115Z,7.37
2017-02-17T09:54:01.543Z,7.4
2017-02-17T09:55:12.982Z,7.4
2017-02-17T09:56:24.622Z,7.34
2017-02-17T09:57:36.052Z,7.37
2017-02-17T09:58:47.488Z,7.34
2017-02-17T09:59:58.920Z,7.39
2017-02-17T10:01:10.766Z,7.45
2017-02-17T10:02:22.244Z,7.44
2017-02-17T10:03:33.880Z,7.47
2017-02-17T10:04:45.347Z,7.44
2017-02-17T10:05:57.003Z,7.44
2017-02-17T10:07:08.672Z,7.48
2017-02-17T10:08:20.376Z,7.44
2017-02-17T10:09:31.830Z,7.45
2017-02-17T10:10:43.458Z,7.48
2017-02-17T10:11:55.310Z,7.48
2017-02-17T10:13:06.748Z,7.48
2017-02-17T10:14:18.181Z,7.54
2017-02-17T10:15:29.622Z,7.52
2017-02-17T10:16:41.063Z,7.49
2017-02-17T10:17:52.506Z,7.51
2017-02-17T10:19:03.935Z,7.55
2017-02-17T10:20:15.426Z,7.59
2017-02-17T10:21:26.876Z,7.51
2017-02-17T10:22:38.512Z,7.55
2017-02-17T10:23:49.961Z,7.56
2017-02-17T10:25:01.388Z,7.63
2017-02-17T10:26:12.848Z,7.56
2017-02-17T10:27:24.480Z,7.47
2017-02-17T10:28:35.936Z,7.48
2017-02-17T10:29:47.666Z,7.52
2017-02-17T10:30:59.106Z,7.44
2017-02-17T10:32:10.559Z,7.48
2017-02-17T10:33:22.020Z,7.52
2017-02-17T10:34:33.457Z,7.47
2017-02-17T10:35:44.902Z,7.45
2017-02-17T10:36:56.348Z,7.47
2017-02-17T10:38:07.788Z,7.47
2017-02-17T10:39:19.216Z,7.49
2017-02-17T10:40:30.720Z,7.45
2017-02-17T10:41:42.156Z,7.54
2017-02-17T10:42:53.589Z,7.55
2017-02-17T10:44:05.049Z,7.56
2017-02-17T10:45:16.472Z,7.63
2017-02-17T10:46:28.167Z,7.58
2017-02-17T10:47:39.799Z,7.58
2017-02-17T10:48:51.234Z,7.68
2017-02-17T10:50:02.857Z,7.64
2017-02-17T10:51:14.335Z,7.74
2017-02-17T10:52:25.791Z,7.7
2017-02-17T10:53:37.255Z,7.56
2017-02-17T10:54:48.734Z,7.56
2017-02-17T10:56:00.159Z,7.54
2017-02-17T10:57:11.606Z,7.59
2017-02-17T10:58:23.050Z,7.61
2017-02-17T10:59:34.508Z,7.61
2017-02-17T11:00:45.945Z,7.52
2017-02-17T11:01:57.432Z,7.54
2017-02-17T11:03:08.878Z,7.54
2017-02-17T11:04:20.517Z,7.58
2017-02-17T11:05:31.969Z,7.63
2017-02-17T11:06:43.416Z,7.58
2017-02-17T11:07:54.852Z,7.59
2017-02-17T11:09:06.483Z,7.59
2017-02-17T11:10:18.142Z,7.51
2017-02-17T11:11:29.576Z,7.54
2017-02-17T11:12:41.273Z,7.59
2017-02-17T11:13:52.698Z,7.55
2017-02-17T11:15:04.125Z,7.63
2017-02-17T11:16:15.566Z,7.58
2017-02-17T11:17:26.994Z,7.63
2017-02-17T11:18:38.453Z,7.58
2017-02-17T11:19:49.895Z,7.63
2017-02-17T11:21:01.344Z,7.64
2017-02-17T11:22:12.771Z,7.68
2017-02-17T11:23:24.251Z,7.59
2017-02-17T11:24:35.681Z,7.68
2017-02-17T11:25:47.143Z,7.7
2017-02-17T11:26:58.581Z,7.64
2017-02-17T11:28:10.227Z,7.64
2017-02-17T11:29:21.668Z,7.73
2017-02-17T11:30:33.105Z,7.68
2017-02-17T11:31:44.553Z,7.63
2017-02-17T11:32:56.024Z,7.67
2017-02-17T11:34:07.518Z,7.73
2017-02-17T11:35:18.958Z,7.75
2017-02-17T11:36:30.580Z,7.74
2017-02-17T11:37:42.023Z,7.74
2017-02-17T11:38:53.472Z,7.77
2017-02-17T11:40:04.910Z,7.78
2017-02-17T11:41:16.578Z,7.74
2017-02-17T11:42:28.018Z,7.78
2017-02-17T11:43:39.444Z,7.75
2017-02-17T11:44:50.936Z,7.71
2017-02-17T11:46:02.592Z,7.77
2017-02-17T11:47:14.233Z,7.8
2017-02-17T11:48:25.681Z,7.92
2017-02-17T11:49:37.140Z,7.98
2017-02-17T11:50:48.778Z,8.07
2017-02-17T11:52:00.416Z,8.16
2017-02-17T11:53:12.059Z,8.17
2017-02-17T11:54:23.483Z,8.21
2017-02-17T11:55:34.974Z,8.16
2017-02-17T11:56:46.419Z,8.13
2017-02-17T11:57:57.885Z,8.26
2017-02-17T11:59:09.339Z,8.19
2017-02-17T12:00:20.779Z,8.24
2017-02-17T12:01:32.221Z,8.25
2017-02-17T12:02:43.655Z,8.19
2017-02-17T12:03:55.131Z,8.28
2017-02-17T12:05:06.789Z,8.26
2017-02-17T12:06:18.299Z,8.31
2017-02-17T12:07:29.747Z,8.32
2017-02-17T12:08:41.198Z,8.39
2017-02-17T12:09:52.631Z,8.31
2017-02-17T12:11:04.074Z,8.35
2017-02-17T12:12:15.527Z,8.46
2017-02-17T12:13:26.966Z,8.44
2017-02-17T12:14:38.423Z,8.44
2017-02-17T12:15:49.865Z,8.47
2017-02-17T12:17:01.367Z,8.44
2017-02-17T12:18:12.825Z,8.36
2017-02-17T12:19:24.484Z,8.39
2017-02-17T12:20:35.927Z,8.34
2017-02-17T12:21:47.367Z,8.47
2017-02-17T12:22:58.854Z,8.42
2017-02-17T12:24:10.288Z,8.4
2017-02-17T12:25:21.723Z,8.62
2017-02-17T12:26:33.372Z,8.68
2017-02-17T12:27:44.813Z,8.64
2017-02-17T12:28:56.267Z,8.6
2017-02-17T12:30:07.715Z,8.54
2017-02-17T12:31:19.166Z,8.52
2017-02-17T12:32:30.626Z,8.54
2017-02-17T12:33:42.311Z,8.44
2017-02-17T12:34:53.958Z,8.36
2017-02-17T12:36:05.404Z,8.49
2017-02-17T12:37:16.877Z,8.42
2017-02-17T12:38:28.344Z,8.49
2017-02-17T12:39:39.974Z,8.31
2017-02-17T12:40:51.434Z,8.43
2017-02-17T12:42:03.069Z,8.42
2017-02-17T12:43:14.512Z,8.43
2017-02-17T12:44:26.009Z,8.49
2017-02-17T12:45:37.443Z,8.46
2017-02-17T12:46:48.887Z,8.4
2017-02-17T12:48:00.348Z,8.39
2017-02-17T12:49:11.785Z,8.44
2017-02-17T12:50:23.213Z,8.47
2017-02-17T12:51:34.650Z,8.47
2017-02-17T12:52:46.095Z,8.58
2017-02-17T12:53:57.550Z,8.42
2017-02-17T12:55:09.068Z,8.46
2017-02-17T12:56:20.531Z,8.61
2017-02-17T12:57:31.989Z,8.6
2017-02-17T12:58:43.445Z,8.5
2017-02-17T12:59:54.898Z,8.47
2017-02-17T13:01:06.369Z,8.47
2017-02-17T13:02:17.795Z,8.44
2017-02-17T13:03:29.234Z,8.46
2017-02-17T13:04:40.681Z,8.47
2017-02-17T13:05:52.144Z,8.42
2017-02-17T13:07:03.590Z,8.46
2017-02-17T13:08:15.039Z,8.42
2017-02-17T13:09:26.478Z,8.42
2017-02-17T13:10:38.120Z,8.4
2017-02-17T13:11:49.603Z,8.4
2017-02-17T13:13:01.268Z,8.35
2017-02-17T13:14:12.730Z,8.43
2017-02-17T13:15:24.365Z,8.43
2017-02-17T13:16:35.858Z,8.39
2017-02-17T13:17:47.306Z,8.47
2017-02-17T13:18:58.756Z,8.39
2017-02-17T13:20:10.218Z,8.47
2017-02-17T13:21:21.864Z,8.43
2017-02-17T13:22:33.335Z,8.46
2017-02-17T13:23:44.786Z,8.4
2017-02-17T13:24:56.216Z,8.54
2017-02-17T13:26:07.669Z,8.53
2017-02-17T13:27:19.162Z,8.61
2017-02-17T13:28:30.608Z,8.54
2017-02-17T13:29:42.063Z,8.57
2017-02-17T13:30:53.721Z,8.6
2017-02-17T13:32:05.180Z,8.57
2017-02-17T13:33:16.635Z,8.64
2017-02-17T13:34:28.277Z,8.67
2017-02-17T13:35:39.722Z,8.74
2017-02-17T13:36:51.180Z,8.67
2017-02-17T13:38:02.684Z,8.74
2017-02-17T13:39:14.328Z,8.76
2017-02-17T13:40:25.769Z,8.79
2017-02-17T13:41:37.205Z,8.86
2017-02-17T13:42:48.661Z,8.9
2017-02-17T13:44:00.500Z,8.89
2017-02-17T13:45:12.141Z,8.92
2017-02-17T13:46:23.777Z,8.87
2017-02-17T13:47:35.225Z,8.95
2017-02-17T13:48:46.722Z,8.97
2017-02-17T13:49:58.149Z,8.97
2017-02-17T13:51:09.783Z,8.97
2017-02-17T13:52:21.427Z,9.04
2017-02-17T13:53:33.067Z,9.01
2017-02-17T13:54:44.559Z,9
2017-02-17T13:55:56.222Z,9.08
2017-02-17T13:57:07.676Z,9.2
2017-02-17T13:58:19.115Z,9.14
2017-02-17T13:59:30.561Z,9.03
2017-02-17T14:00:42.199Z,9.17
2017-02-17T14:01:53.661Z,9.17
2017-02-17T14:03:05.093Z,9.17
2017-02-17T14:04:16.789Z,9.04
2017-02-17T14:05:28.241Z,8.98
2017-02-17T14:06:39.691Z,9.01
2017-02-17T14:07:51.148Z,9.01
2017-02-17T14:09:02.610Z,8.92
2017-02-17T14:10:14.105Z,9.03
2017-02-17T14:11:25.546Z,8.94
2017-02-17T14:12:36.987Z,8.94
2017-02-17T14:13:48.627Z,8.9
2017-02-17T14:15:00.109Z,8.86
2017-02-17T14:16:11.543Z,8.82
2017-02-17T14:17:22.982Z,8.76
2017-02-17T14:18:34.619Z,8.72
2017-02-17T14:19:46.045Z,8.67
2017-02-17T14:20:57.482Z,8.67
2017-02-17T14:22:09.135Z,8.71
2017-02-17T14:23:20.574Z,8.64
2017-02-17T14:24:32.026Z,8.61
2017-02-17T14:25:43.713Z,8.67
2017-02-17T14:26:55.142Z,8.57
2017-02-17T14:28:06.595Z,8.65
2017-02-17T14:29:18.242Z,8.62
2017-02-17T14:30:30.484Z,8.69
2017-02-17T14:31:41.924Z,8.69
2017-02-17T14:32:53.383Z,8.69
2017-02-17T14:34:04.812Z,8.79
2017-02-17T14:35:16.266Z,8.79
2017-02-17T14:36:27.703Z,8.82
2017-02-17T14:37:39.154Z,8.82
2017-02-17T14:38:50.793Z,8.8
2017-02-17T14:40:02.282Z,8.79
2017-02-17T14:41:13.735Z,8.8
2017-02-17T14:42:25.224Z,8.82
2017-02-17T14:43:36.655Z,8.79
2017-02-17T14:44:48.111Z,8.72
2017-02-17T14:45:59.569Z,8.82
2017-02-17T14:47:11.228Z,8.74
2017-02-17T14:48:22.667Z,8.72
2017-02-17T14:49:34.120Z,8.72
2017-02-17T14:50:45.567Z,8.69
2017-02-17T14:51:57.021Z,8.71
2017-02-17T14:53:08.453Z,8.67
2017-02-17T14:54:19.898Z,8.71
2017-02-17T14:55:31.341Z,8.69
2017-02-17T14:56:43.034Z,8.69
2017-02-17T14:57:54.481Z,8.77
2017-02-17T14:59:06.138Z,8.79
2017-02-17T15:00:17.617Z,8.74
2017-02-17T15:01:29.075Z,8.77
2017-02-17T15:02:40.540Z,8.79
2017-02-17T15:03:52.015Z,8.74
2017-02-17T15:05:03.452Z,8.77
2017-02-17T15:06:14.888Z,8.76
2017-02-17T15:07:26.570Z,8.72
2017-02-17T15:08:38.042Z,8.76
2017-02-17T15:09:49.490Z,8.77
2017-02-17T15:11:00.926Z,8.71
2017-02-17T15:12:12.371Z,8.72
2017-02-17T15:13:23.832Z,8.69
2017-02-17T15:14:35.282Z,8.68
2017-02-17T15:15:46.739Z,8.69
2017-02-17T15:16:58.166Z,8.72
2017-02-17T15:18:09.682Z,8.8
2017-02-17T15:19:21.129Z,8.68
2017-02-17T15:20:32.556Z,8.72
2017-02-17T15:21:43.986Z,8.76
2017-02-17T15:22:55.623Z,8.64
2017-02-17T15:24:07.079Z,8.68
2017-02-17T15:25:18.514Z,8.69
2017-02-17T15:26:29.952Z,8.71
2017-02-17T15:27:41.401Z,8.68
2017-02-17T15:28:52.839Z,8.61
2017-02-17T15:30:04.340Z,8.64
2017-02-17T15:31:15.809Z,8.58
2017-02-17T15:32:27.258Z,8.6
2017-02-17T15:33:38.695Z,8.52
2017-02-17T15:34:50.141Z,8.52
2017-02-17T15:36:01.584Z,8.53
2017-02-17T15:37:13.031Z,8.5
2017-02-17T15:38:24.470Z,8.46
2017-02-17T15:39:35.968Z,8.52
2017-02-17T15:40:47.411Z,8.44
2017-02-17T15:41:58.858Z,8.57
2017-02-17T15:43:10.503Z,8.49
2017-02-17T15:44:22.142Z,8.47
2017-02-17T15:45:33.596Z,8.53
2017-02-17T15:46:45.238Z,8.4
2017-02-17T15:47:56.669Z,8.43
2017-02-17T15:49:08.120Z,8.47
2017-02-17T15:50:19.607Z,8.46
2017-02-17T15:51:31.129Z,8.39
2017-02-17T15:52:42.575Z,8.49
2017-02-17T15:53:54.069Z,8.4
2017-02-17T15:55:05.514Z,8.42